Time;durP1;ratioP1;P1;durP2;ratioP2;P2;SDS_P1;SDS_P2;PMS_P1;PMS_P2;Temp;Humidity;BMP_temperature;BMP_pressure;BME280_temperature;BME280_humidity;BME280_pressure;Samples;Min_cycle;Max_cycle;Signal;HPM_P1;HPM_P2
2023/04/07 00:02:16;;;;;;;12.73;8.43;;;7.50;48.90;;;;;;5054041;28;20031;-66
2023/04/07 00:04:41;;;;;;;13.27;8.60;;;7.50;49.00;;;;;;5054851;28;20067;-66
2023/04/07 00:07:07;;;;;;;13.85;8.30;;;7.50;49.00;;;;;;5055648;28;20032;-66
2023/04/07 00:09:33;;;;;;;13.20;8.38;;;7.40;49.00;;;;;;5055197;28;20021;-66
2023/04/07 00:12:01;;;;;;;12.05;8.15;;;7.40;49.20;;;;;;5054592;28;20113;-66
2023/04/07 00:14:27;;;;;;;12.77;8.65;;;7.40;49.30;;;;;;5055054;28;20029;-66
2023/04/07 00:16:53;;;;;;;11.38;8.52;;;7.40;49.40;;;;;;5054579;28;20029;-66
2023/04/07 00:19:19;;;;;;;12.60;8.73;;;7.40;49.60;;;;;;5055002;28;20079;-66
2023/04/07 00:21:44;;;;;;;14.55;8.85;;;7.40;49.40;;;;;;5054549;28;20028;-67
2023/04/07 00:24:10;;;;;;;14.77;8.25;;;7.40;49.60;;;;;;5054378;28;20032;-66
2023/04/07 00:26:36;;;;;;;11.45;7.97;;;7.40;49.40;;;;;;5054739;28;20036;-67
2023/04/07 00:29:01;;;;;;;13.32;7.35;;;7.40;49.30;;;;;;5054472;28;20381;-67
2023/04/07 00:31:27;;;;;;;16.08;8.25;;;7.30;49.40;;;;;;5054543;28;20576;-65
2023/04/07 00:33:54;;;;;;;10.05;7.60;;;7.30;49.60;;;;;;5054300;28;20060;-66
2023/04/07 00:36:20;;;;;;;12.43;7.90;;;7.30;49.60;;;;;;5054658;28;20025;-65
2023/04/07 00:38:45;;;;;;;13.73;8.07;;;7.20;49.60;;;;;;5054218;28;20087;-66
2023/04/07 00:41:11;;;;;;;12.30;8.20;;;7.20;49.70;;;;;;5054536;28;20559;-65
2023/04/07 00:43:37;;;;;;;14.40;8.40;;;7.20;49.90;;;;;;5054223;28;20049;-66
2023/04/07 00:46:02;;;;;;;11.18;8.20;;;7.20;50.00;;;;;;5054070;28;20267;-65
2023/04/07 00:48:28;;;;;;;12.13;8.50;;;7.20;49.80;;;;;;5054471;28;20043;-66
2023/04/07 00:50:54;;;;;;;12.10;8.40;;;7.20;49.70;;;;;;5052764;28;20391;-66
2023/04/07 00:53:20;;;;;;;13.68;9.18;;;7.20;49.80;;;;;;5054411;28;20519;-66
2023/04/07 00:55:45;;;;;;;12.73;8.30;;;7.10;50.00;;;;;;5052860;28;20029;-67
2023/04/07 00:58:11;;;;;;;13.32;8.32;;;7.10;50.20;;;;;;5054257;28;20103;-66
2023/04/07 01:01:08;;;;;;;12.00;7.53;;;7.10;50.30;;;;;;5054360;28;20109;-66
2023/04/07 01:03:40;;;;;;;14.20;8.45;;;7.00;50.20;;;;;;5051401;28;20045;-66
2023/04/07 01:06:07;;;;;;;11.10;7.72;;;7.00;50.30;;;;;;5053486;28;20079;-66
2023/04/07 01:08:47;;;;;;;14.65;8.45;;;7.00;50.30;;;;;;5054310;28;20044;-65
2023/04/07 01:11:22;;;;;;;12.60;8.02;;;7.00;50.40;;;;;;5053976;28;20074;-66
2023/04/07 01:13:49;;;;;;;13.80;8.90;;;7.00;50.50;;;;;;5053565;28;20474;-66
2023/04/07 01:16:26;;;;;;;14.48;8.98;;;7.00;50.50;;;;;;5054145;28;20025;-67
2023/04/07 01:18:57;;;;;;;10.43;7.60;;;6.90;50.50;;;;;;5053579;28;20028;-67
2023/04/07 01:21:27;;;;;;;12.68;8.40;;;6.90;50.50;;;;;;5053632;28;20032;-65
2023/04/07 01:24:11;;;;;;;15.68;8.73;;;6.90;50.50;;;;;;5053463;28;20039;-65
2023/04/07 01:26:38;;;;;;;15.27;8.77;;;6.90;50.60;;;;;;5053659;28;20033;-65
2023/04/07 01:29:18;;;;;;;13.30;8.27;;;6.80;50.50;;;;;;5053013;28;20025;-67
2023/04/07 01:31:46;;;;;;;13.82;8.57;;;6.80;50.60;;;;;;5054190;28;20029;-65
2023/04/07 01:34:13;;;;;;;13.40;8.35;;;6.70;50.70;;;;;;5053482;28;20052;-65
2023/04/07 01:36:39;;;;;;;13.95;8.70;;;6.70;50.80;;;;;;5053521;28;20036;-66
2023/04/07 01:39:06;;;;;;;11.05;8.05;;;6.70;50.80;;;;;;5052534;28;20040;-65
2023/04/07 01:41:32;;;;;;;13.00;8.55;;;6.70;50.70;;;;;;5052072;28;20043;-65
2023/04/07 01:43:59;;;;;;;15.73;9.23;;;6.70;50.90;;;;;;5052440;28;20098;-65
2023/04/07 01:46:26;;;;;;;13.32;7.90;;;6.70;50.90;;;;;;5053050;28;20028;-65
2023/04/07 01:48:52;;;;;;;12.63;8.43;;;6.70;50.90;;;;;;5052956;28;20033;-66
2023/04/07 01:51:20;;;;;;;14.43;7.95;;;6.70;51.00;;;;;;5051951;28;20380;-65
2023/04/07 01:53:47;;;;;;;14.70;8.23;;;6.70;50.90;;;;;;5053069;28;20029;-65
2023/04/07 01:56:13;;;;;;;11.20;8.13;;;6.70;51.00;;;;;;5053073;28;20521;-66
2023/04/07 01:58:39;;;;;;;11.57;8.00;;;6.70;51.10;;;;;;5053104;28;20104;-66
2023/04/07 02:01:05;;;;;;;13.98;8.07;;;6.70;51.40;;;;;;5052711;28;20120;-66
2023/04/07 02:03:42;;;;;;;13.02;7.90;;;6.60;51.10;;;;;;5052885;28;20127;-66
2023/04/07 02:06:11;;;;;;;14.55;8.02;;;6.70;51.10;;;;;;5052594;28;20028;-66
2023/04/07 02:08:45;;;;;;;12.80;8.15;;;6.70;51.10;;;;;;5053327;28;20393;-66
2023/04/07 02:11:12;;;;;;;10.88;7.60;;;6.70;51.10;;;;;;5053699;28;20021;-66
2023/04/07 02:13:39;;;;;;;11.07;7.75;;;6.70;51.10;;;;;;5053655;28;20032;-65
2023/04/07 02:16:06;;;;;;;15.23;7.93;;;6.70;51.20;;;;;;5052244;28;20036;-66
2023/04/07 02:18:32;;;;;;;15.25;9.25;;;6.70;51.40;;;;;;5053716;28;20036;-65
2023/04/07 02:21:00;;;;;;;17.25;9.13;;;6.60;51.30;;;;;;5052401;28;20111;-66
2023/04/07 02:23:26;;;;;;;12.60;8.50;;;6.60;51.50;;;;;;5052980;28;20029;-66
2023/04/07 02:25:55;;;;;;;14.50;8.13;;;6.70;51.50;;;;;;5052228;28;20032;-65
2023/04/07 02:28:21;;;;;;;14.93;8.45;;;6.70;51.50;;;;;;5052672;28;20040;-66
2023/04/07 02:30:46;;;;;;;13.70;8.60;;;6.70;51.60;;;;;;5052676;28;20025;-66
2023/04/07 02:33:12;;;;;;;12.50;7.50;;;6.70;51.50;;;;;;5051147;28;20048;-67
2023/04/07 02:35:37;;;;;;;14.35;8.70;;;6.70;51.50;;;;;;5053016;28;20032;-65
2023/04/07 02:38:03;;;;;;;13.60;8.27;;;6.70;51.60;;;;;;5052263;28;20147;-66
2023/04/07 02:40:29;;;;;;;12.32;8.38;;;6.70;51.50;;;;;;5052653;28;20095;-66
2023/04/07 02:42:54;;;;;;;11.90;8.20;;;6.60;51.60;;;;;;5051867;28;20469;-65
2023/04/07 02:45:20;;;;;;;13.98;7.82;;;6.60;51.70;;;;;;5052971;28;20049;-65
2023/04/07 02:47:46;;;;;;;12.88;8.57;;;6.60;51.70;;;;;;5052669;28;20107;-65
2023/04/07 02:50:11;;;;;;;14.23;8.65;;;6.60;51.70;;;;;;5052401;28;20380;-66
2023/04/07 02:52:37;;;;;;;13.77;8.98;;;6.60;51.70;;;;;;5052636;28;20121;-66
2023/04/07 02:55:03;;;;;;;14.77;8.70;;;6.60;51.60;;;;;;5052210;28;20517;-66
2023/04/07 02:57:28;;;;;;;12.45;8.25;;;6.60;51.60;;;;;;5052603;28;20031;-66
2023/04/07 02:59:56;;;;;;;13.38;8.80;;;6.60;51.70;;;;;;5052074;28;20027;-67
2023/04/07 03:02:23;;;;;;;12.80;8.07;;;6.60;51.80;;;;;;5052334;28;20466;-66
2023/04/07 03:04:51;;;;;;;13.50;7.68;;;6.60;51.80;;;;;;5052388;28;20033;-66
2023/04/07 03:07:17;;;;;;;13.90;8.73;;;6.60;51.80;;;;;;5051904;28;20029;-66
2023/04/07 03:09:42;;;;;;;17.42;8.77;;;6.60;51.70;;;;;;5052074;28;20112;-66
2023/04/07 03:12:08;;;;;;;13.07;8.68;;;6.50;51.80;;;;;;5051683;28;20033;-66
2023/04/07 03:14:34;;;;;;;10.80;7.78;;;6.50;51.90;;;;;;5052317;28;20112;-67
2023/04/07 03:16:59;;;;;;;12.32;8.45;;;6.50;51.90;;;;;;5051932;28;20377;-67
2023/04/07 03:19:25;;;;;;;13.70;8.38;;;6.50;51.80;;;;;;5054651;28;20017;-66
2023/04/07 03:21:51;;;;;;;17.70;8.35;;;6.50;51.80;;;;;;5056204;28;20365;-66
2023/04/07 03:24:17;;;;;;;13.52;8.15;;;6.50;51.70;;;;;;5055655;28;20033;-66
2023/04/07 03:26:43;;;;;;;16.98;8.65;;;6.50;51.60;;;;;;5056141;28;20036;-67
2023/04/07 03:29:08;;;;;;;13.73;8.85;;;6.50;52.30;;;;;;5055290;28;20025;-66
2023/04/07 03:31:34;;;;;;;12.13;8.43;;;6.50;51.70;;;;;;5055943;28;20032;-66
2023/04/07 03:33:59;;;;;;;12.38;7.93;;;6.50;51.80;;;;;;5055531;28;20025;-67
2023/04/07 03:36:26;;;;;;;15.25;8.32;;;6.40;51.80;;;;;;5055857;28;20021;-66
2023/04/07 03:38:52;;;;;;;15.32;8.10;;;6.40;51.90;;;;;;5055806;28;20086;-68
2023/04/07 03:41:18;;;;;;;13.45;8.32;;;6.40;51.90;;;;;;5054629;28;20028;-66
2023/04/07 03:43:43;;;;;;;12.00;7.90;;;6.40;51.90;;;;;;5055733;28;20053;-67
2023/04/07 03:46:09;;;;;;;15.45;8.88;;;6.40;52.00;;;;;;5055273;28;20473;-67
2023/04/07 03:48:35;;;;;;;11.05;7.70;;;6.40;52.20;;;;;;5055585;28;20060;-66
2023/04/07 03:51:00;;;;;;;14.88;8.80;;;6.40;52.30;;;;;;5055216;28;20032;-67
2023/04/07 03:53:26;;;;;;;15.32;9.13;;;6.30;52.30;;;;;;5055555;28;20492;-66
2023/04/07 03:55:52;;;;;;;13.93;8.38;;;6.40;52.40;;;;;;5055193;28;20025;-66
2023/04/07 03:58:17;;;;;;;13.40;8.38;;;6.40;52.30;;;;;;5054696;28;20085;-66
2023/04/07 04:00:43;;;;;;;15.25;8.48;;;6.40;52.20;;;;;;5055151;28;20032;-66
2023/04/07 04:03:09;;;;;;;11.32;8.23;;;6.40;52.30;;;;;;5054643;28;20035;-66
2023/04/07 04:05:35;;;;;;;15.88;8.98;;;6.30;52.30;;;;;;5055269;28;20083;-66
2023/04/07 04:08:00;;;;;;;11.00;7.90;;;6.30;52.40;;;;;;5054591;28;20114;-66
2023/04/07 04:10:26;;;;;;;14.80;9.02;;;6.40;52.40;;;;;;5054886;28;20025;-66
2023/04/07 04:12:52;;;;;;;13.63;9.02;;;6.30;52.50;;;;;;5055165;28;20040;-66
2023/04/07 04:15:17;;;;;;;12.00;8.43;;;6.30;52.50;;;;;;5054293;28;20029;-66
2023/04/07 04:17:43;;;;;;;13.23;8.52;;;6.30;52.50;;;;;;5054921;28;20499;-66
2023/04/07 04:20:09;;;;;;;14.13;8.38;;;6.30;52.60;;;;;;5054616;28;20083;-66
2023/04/07 04:22:35;;;;;;;12.57;7.97;;;6.30;52.70;;;;;;5054890;28;20057;-66
2023/04/07 04:25:01;;;;;;;13.07;8.60;;;6.30;52.80;;;;;;5054492;28;20029;-67
2023/04/07 04:27:27;;;;;;;11.52;8.05;;;6.30;52.70;;;;;;5054911;28;20420;-66
2023/04/07 04:29:53;;;;;;;14.00;8.70;;;6.30;52.60;;;;;;5054783;28;20025;-66
2023/04/07 04:32:20;;;;;;;12.95;8.63;;;6.30;52.10;;;;;;5054336;28;20072;-66
2023/04/07 04:34:45;;;;;;;13.50;7.88;;;6.30;52.20;;;;;;5054835;28;20021;-66
2023/04/07 04:37:11;;;;;;;13.90;8.30;;;6.40;52.40;;;;;;5053820;28;20559;-66
2023/04/07 04:39:36;;;;;;;15.20;8.27;;;6.40;52.20;;;;;;5054262;28;20025;-66
2023/04/07 04:42:02;;;;;;;11.73;8.05;;;6.40;52.70;;;;;;5054076;28;20029;-67
2023/04/07 04:44:29;;;;;;;13.13;8.55;;;6.40;52.20;;;;;;5054521;28;20057;-66
2023/04/07 04:46:55;;;;;;;14.23;8.63;;;6.40;52.20;;;;;;5054423;28;20030;-67
2023/04/07 04:49:21;;;;;;;13.60;8.15;;;6.40;52.20;;;;;;5054078;28;20059;-67
2023/04/07 04:51:47;;;;;;;15.27;7.95;;;6.40;52.20;;;;;;5054359;28;20021;-66
2023/04/07 04:54:12;;;;;;;12.98;7.80;;;6.40;52.40;;;;;;5054070;28;20108;-67
2023/04/07 04:56:38;;;;;;;16.25;8.95;;;6.40;52.40;;;;;;5054042;28;20056;-66
2023/04/07 04:59:04;;;;;;;12.90;7.88;;;6.40;52.20;;;;;;5053606;28;20032;-67
2023/04/07 05:01:30;;;;;;;13.55;8.68;;;6.40;52.10;;;;;;5054225;28;20104;-67
2023/04/07 05:03:55;;;;;;;13.60;8.20;;;6.40;52.10;;;;;;5054068;28;20112;-67
2023/04/07 05:06:21;;;;;;;12.02;8.27;;;6.40;52.20;;;;;;5053389;28;20478;-66
2023/04/07 05:08:47;;;;;;;13.40;8.50;;;6.50;52.00;;;;;;5054058;28;20024;-67
2023/04/07 05:11:13;;;;;;;14.13;8.35;;;6.50;52.10;;;;;;5053942;28;20052;-66
2023/04/07 05:13:39;;;;;;;17.83;8.20;;;6.50;52.00;;;;;;5053933;28;20074;-66
2023/04/07 05:16:05;;;;;;;15.02;8.63;;;6.50;52.10;;;;;;5053197;28;20040;-67
2023/04/07 05:18:31;;;;;;;14.30;8.63;;;6.50;51.70;;;;;;5053837;28;20033;-66
2023/04/07 05:20:57;;;;;;;13.98;7.68;;;6.50;51.80;;;;;;5053702;28;20108;-66
2023/04/07 05:23:22;;;;;;;15.05;8.65;;;6.50;51.90;;;;;;5053242;28;20055;-67
2023/04/07 05:25:48;;;;;;;12.70;7.95;;;6.50;52.20;;;;;;5053777;28;20028;-66
2023/04/07 05:28:14;;;;;;;13.38;7.78;;;6.50;52.10;;;;;;5053088;28;20021;-66
2023/04/07 05:30:39;;;;;;;12.98;7.72;;;6.50;52.20;;;;;;5053640;28;20025;-67
2023/04/07 05:33:05;;;;;;;13.65;7.97;;;6.50;52.30;;;;;;5053333;28;20381;-67
2023/04/07 05:35:31;;;;;;;14.98;8.68;;;6.50;52.00;;;;;;5054021;28;20481;-66
2023/04/07 05:37:56;;;;;;;11.10;7.45;;;6.60;51.90;;;;;;5053625;28;20469;-66
2023/04/07 05:40:23;;;;;;;12.63;8.18;;;6.50;51.90;;;;;;5053019;28;20027;-66
2023/04/07 05:42:49;;;;;;;14.98;8.82;;;6.50;51.90;;;;;;5052560;28;20119;-66
2023/04/07 05:45:15;;;;;;;14.85;8.02;;;6.50;52.10;;;;;;5053239;28;20049;-66
2023/04/07 05:47:40;;;;;;;11.75;7.40;;;6.60;51.80;;;;;;5053520;28;20029;-66
2023/04/07 05:50:06;;;;;;;14.77;9.00;;;6.60;52.20;;;;;;5053314;28;20370;-67
2023/04/07 05:52:32;;;;;;;13.38;8.40;;;6.60;52.10;;;;;;5052096;28;20033;-66
2023/04/07 05:54:58;;;;;;;16.23;8.65;;;6.60;52.10;;;;;;5053110;28;20075;-67
2023/04/07 05:57:23;;;;;;;11.95;8.20;;;6.70;52.10;;;;;;5052733;28;20025;-66
2023/04/07 05:59:49;;;;;;;13.45;8.15;;;6.80;52.00;;;;;;5052863;28;20036;-66
2023/04/07 06:02:15;;;;;;;12.75;7.65;;;6.70;51.60;;;;;;5052605;28;20021;-67
2023/04/07 06:04:40;;;;;;;15.10;8.85;;;6.80;51.70;;;;;;5053276;28;20075;-66
2023/04/07 06:07:06;;;;;;;16.33;8.90;;;6.80;52.10;;;;;;5052755;28;20025;-66
2023/04/07 06:09:32;;;;;;;18.48;9.23;;;6.80;51.90;;;;;;5053069;28;20055;-66
2023/04/07 06:11:57;;;;;;;24.77;11.68;;;6.80;51.70;;;;;;5053089;28;20029;-66
2023/04/07 06:14:24;;;;;;;18.38;9.98;;;6.80;51.60;;;;;;5052542;28;20354;-66
2023/04/07 06:16:50;;;;;;;22.08;10.43;;;6.80;52.00;;;;;;5052505;28;20047;-66
2023/04/07 06:19:16;;;;;;;16.70;9.18;;;6.80;51.70;;;;;;5052223;28;20461;-65
2023/04/07 06:21:41;;;;;;;14.25;8.27;;;6.90;51.60;;;;;;5053218;28;20036;-66
2023/04/07 06:24:07;;;;;;;14.40;9.70;;;6.90;51.30;;;;;;5052767;28;20036;-65
2023/04/07 06:26:33;;;;;;;16.15;8.27;;;6.90;51.50;;;;;;5052532;28;20033;-68
2023/04/07 06:28:59;;;;;;;10.63;7.43;;;6.90;51.70;;;;;;5052416;28;20390;-66
2023/04/07 06:31:25;;;;;;;13.73;7.85;;;6.90;51.60;;;;;;5052322;28;20025;-67
2023/04/07 06:33:51;;;;;;;15.07;8.23;;;6.90;51.60;;;;;;5052576;28;20477;-66
2023/04/07 06:36:17;;;;;;;13.35;8.30;;;6.90;51.70;;;;;;5052322;28;20052;-66
2023/04/07 06:38:43;;;;;;;11.80;7.88;;;6.90;51.60;;;;;;5052712;28;20064;-67
2023/04/07 06:41:15;;;;;;;11.20;7.57;;;7.00;51.70;;;;;;5052786;28;20025;-66
2023/04/07 06:43:42;;;;;;;12.38;7.63;;;7.00;51.50;;;;;;5052320;28;20053;-67
2023/04/07 06:46:08;;;;;;;11.73;7.35;;;7.10;51.30;;;;;;5052648;28;20057;-67
2023/04/07 06:48:34;;;;;;;12.80;8.20;;;7.10;51.30;;;;;;5052149;28;20021;-67
2023/04/07 06:50:59;;;;;;;13.77;7.93;;;7.10;51.30;;;;;;5052188;28;20052;-67
2023/04/07 06:53:25;;;;;;;17.25;8.20;;;7.20;51.40;;;;;;5053387;28;20087;-66
2023/04/07 06:55:51;;;;;;;9.98;6.85;;;7.30;51.30;;;;;;5056632;28;20036;-66
2023/04/07 06:58:16;;;;;;;14.63;8.32;;;7.30;51.10;;;;;;5056125;28;20055;-66
2023/04/07 07:00:42;;;;;;;13.80;7.47;;;7.40;51.00;;;;;;5056285;28;20040;-66
2023/04/07 07:03:07;;;;;;;13.32;8.25;;;7.60;51.30;;;;;;5056120;28;20170;-65
2023/04/07 07:05:33;;;;;;;13.80;7.68;;;7.80;50.60;;;;;;5056034;28;20205;-66
2023/04/07 07:07:59;;;;;;;12.80;7.07;;;8.20;50.20;;;;;;5056127;28;20029;-65
2023/04/07 07:10:24;;;;;;;13.25;7.65;;;8.70;49.60;;;;;;5056003;28;20029;-66
2023/04/07 07:12:50;;;;;;;13.65;7.38;;;8.90;47.70;;;;;;5056267;28;20025;-66
2023/04/07 07:15:16;;;;;;;12.18;8.10;;;8.80;47.30;;;;;;5055879;28;20033;-67
2023/04/07 07:17:42;;;;;;;16.25;8.10;;;8.90;47.50;;;;;;5055971;28;20449;-67
2023/04/07 07:20:09;;;;;;;11.05;7.78;;;8.80;47.60;;;;;;5056002;28;20102;-66
2023/04/07 07:22:34;;;;;;;12.57;8.02;;;8.80;48.20;;;;;;5054445;28;20025;-66
2023/04/07 07:25:00;;;;;;;14.65;8.23;;;8.80;48.00;;;;;;5056053;28;20392;-66
2023/04/07 07:27:26;;;;;;;13.82;8.32;;;8.80;47.50;;;;;;5055491;28;20025;-67
2023/04/07 07:29:51;;;;;;;14.88;8.20;;;8.90;48.00;;;;;;5056014;28;20040;-67
2023/04/07 07:32:17;;;;;;;12.73;7.63;;;8.90;47.50;;;;;;5055614;28;20049;-66
2023/04/07 07:34:43;;;;;;;15.38;7.88;;;8.90;47.40;;;;;;5055903;28;20056;-66
2023/04/07 07:37:08;;;;;;;13.13;8.02;;;8.90;47.30;;;;;;5055906;28;20021;-66
2023/04/07 07:39:34;;;;;;;14.07;8.15;;;8.80;47.40;;;;;;5055402;28;20154;-66
2023/04/07 07:42:00;;;;;;;13.93;7.82;;;8.80;47.30;;;;;;5055445;28;20086;-65
2023/04/07 07:44:26;;;;;;;12.18;8.02;;;8.80;47.70;;;;;;5054858;28;20057;-66
2023/04/07 07:46:51;;;;;;;14.57;8.18;;;8.70;47.90;;;;;;5055699;28;20465;-66
2023/04/07 07:49:17;;;;;;;13.65;8.02;;;8.70;48.10;;;;;;5052769;28;20029;-66
2023/04/07 07:51:44;;;;;;;10.90;7.47;;;8.70;48.20;;;;;;5055669;28;20159;-66
2023/04/07 07:54:10;;;;;;;14.98;8.10;;;8.70;48.40;;;;;;5055516;28;20037;-66
2023/04/07 07:56:36;;;;;;;11.50;7.35;;;8.70;48.00;;;;;;5055186;28;20123;-65
2023/04/07 07:59:05;;;;;;;16.33;8.25;;;8.70;48.40;;;;;;5056947;28;20110;-66
2023/04/07 08:01:30;;;;;;;14.60;8.00;;;8.60;48.60;;;;;;5054983;28;20457;-67
2023/04/07 08:03:56;;;;;;;12.48;7.72;;;8.60;49.00;;;;;;5054563;28;20044;-67
2023/04/07 08:06:22;;;;;;;13.73;8.68;;;8.60;49.10;;;;;;5054942;28;20037;-66
2023/04/07 08:08:47;;;;;;;13.10;7.93;;;8.70;49.20;;;;;;5055133;28;20083;-66
2023/04/07 08:11:13;;;;;;;12.90;8.15;;;8.70;49.50;;;;;;5054852;28;20112;-66
2023/04/07 08:13:39;;;;;;;14.30;7.95;;;8.70;49.50;;;;;;5054963;28;20029;-66
2023/04/07 08:16:05;;;;;;;15.35;8.55;;;8.70;49.80;;;;;;5054885;28;20109;-66
2023/04/07 08:18:31;;;;;;;14.25;8.07;;;8.70;49.60;;;;;;5054520;28;20035;-66
2023/04/07 08:20:57;;;;;;;9.80;6.90;;;8.70;49.00;;;;;;5055125;28;20107;-66
2023/04/07 08:23:22;;;;;;;13.40;8.50;;;8.70;49.20;;;;;;5054344;28;20500;-65
2023/04/07 08:25:48;;;;;;;15.80;9.55;;;8.70;49.60;;;;;;5054899;28;20033;-66
2023/04/07 08:28:14;;;;;;;20.52;8.52;;;8.70;50.20;;;;;;5054830;28;20029;-66
2023/04/07 08:30:40;;;;;;;12.85;8.02;;;8.70;50.60;;;;;;5054348;28;20025;-66
2023/04/07 08:33:06;;;;;;;15.70;7.85;;;8.60;49.80;;;;;;5054408;28;20033;-66
2023/04/07 08:35:31;;;;;;;14.77;8.30;;;8.60;50.10;;;;;;5054338;28;20028;-67
2023/04/07 08:37:57;;;;;;;13.45;8.38;;;8.70;49.60;;;;;;5055004;28;20230;-65
2023/04/07 08:40:23;;;;;;;13.32;8.13;;;8.80;49.60;;;;;;5054310;28;20028;-66
2023/04/07 08:42:49;;;;;;;11.85;7.78;;;8.90;49.60;;;;;;5054573;28;20037;-65
2023/04/07 08:45:17;;;;;;;16.80;7.95;;;9.00;48.90;;;;;;5054103;28;20052;-66
2023/04/07 08:47:45;;;;;;;17.63;8.63;;;9.00;48.70;;;;;;5054017;28;20480;-66
2023/04/07 08:50:11;;;;;;;14.40;8.27;;;9.10;48.20;;;;;;5054541;28;20025;-66
2023/04/07 08:52:58;;;;;;;15.68;8.10;;;9.10;47.90;;;;;;5054347;28;20025;-66
2023/04/07 08:55:25;;;;;;;11.73;7.15;;;9.10;47.90;;;;;;5054005;28;20025;-67
2023/04/07 08:57:51;;;;;;;18.40;7.35;;;9.20;47.70;;;;;;5054274;28;20067;-66
2023/04/07 09:00:17;;;;;;;10.65;7.47;;;9.20;47.50;;;;;;5053203;28;20377;-66
2023/04/07 09:02:44;;;;;;;11.15;7.40;;;9.30;47.30;;;;;;5053528;28;20091;-66
2023/04/07 09:05:11;;;;;;;15.32;8.48;;;9.40;47.50;;;;;;5054218;28;20017;-66
2023/04/07 09:07:39;;;;;;;11.73;7.18;;;9.40;47.50;;;;;;5053699;28;20048;-66
2023/04/07 09:10:05;;;;;;;17.05;7.95;;;9.50;47.00;;;;;;5054117;28;20040;-66
2023/04/07 09:12:32;;;;;;;12.55;7.93;;;9.60;46.90;;;;;;5053354;28;20423;-66
2023/04/07 09:14:57;;;;;;;12.90;8.13;;;9.60;46.80;;;;;;5054140;28;20029;-66
2023/04/07 09:17:26;;;;;;;11.75;7.60;;;9.70;47.10;;;;;;5052699;28;20033;-66
2023/04/07 09:19:55;;;;;;;13.10;8.52;;;9.70;47.10;;;;;;5053907;28;20359;-66
2023/04/07 09:22:47;;;;;;;11.63;7.53;;;9.80;46.80;;;;;;5054133;28;20098;-66
2023/04/07 09:25:14;;;;;;;15.88;7.78;;;9.80;46.60;;;;;;5033944;28;20049;-65
2023/04/07 09:27:40;;;;;;;14.25;8.40;;;9.80;46.50;;;;;;5033521;28;20079;-66
2023/04/07 09:30:14;;;;;;;13.02;8.30;;;9.80;46.40;;;;;;5033886;28;20025;-66
2023/04/07 09:32:40;;;;;;;14.80;7.75;;;9.90;46.10;;;;;;5033612;28;20061;-66
2023/04/07 09:35:06;;;;;;;13.05;7.60;;;9.90;46.70;;;;;;5033653;28;20037;-66
2023/04/07 09:37:32;;;;;;;10.90;6.97;;;9.90;46.10;;;;;;5033262;28;20037;-66
2023/04/07 09:39:58;;;;;;;11.82;7.90;;;9.90;46.10;;;;;;5033327;28;20100;-66
2023/04/07 09:42:25;;;;;;;12.40;7.88;;;9.80;45.70;;;;;;5032697;28;20036;-66
2023/04/07 09:44:51;;;;;;;13.63;8.52;;;9.90;46.20;;;;;;5033402;28;20501;-66
2023/04/07 09:47:17;;;;;;;14.68;8.25;;;9.90;46.10;;;;;;5033304;28;20030;-65
2023/04/07 09:49:52;;;;;;;12.05;8.25;;;9.90;46.20;;;;;;5032887;28;20029;-65
2023/04/07 09:52:19;;;;;;;14.68;7.93;;;9.90;47.30;;;;;;5033365;28;20061;-65
2023/04/07 09:54:45;;;;;;;12.23;8.10;;;9.90;47.60;;;;;;5048047;28;20025;-65
2023/04/07 09:57:12;;;;;;;13.80;7.95;;;9.90;47.70;;;;;;5053055;28;20116;-65
2023/04/07 09:59:41;;;;;;;14.20;8.20;;;9.90;47.50;;;;;;5052677;28;20465;-66
2023/04/07 10:02:07;;;;;;;14.80;8.13;;;9.80;47.20;;;;;;5053102;28;20043;-66
2023/04/07 10:04:33;;;;;;;19.00;9.02;;;9.90;47.40;;;;;;5052837;28;20040;-65
2023/04/07 10:06:59;;;;;;;23.23;9.10;;;9.90;47.70;;;;;;5053391;28;20033;-65
2023/04/07 10:09:29;;;;;;;10.82;7.95;;;9.80;48.00;;;;;;5052941;28;20067;-69
2023/04/07 10:11:56;;;;;;;13.45;8.27;;;9.90;47.90;;;;;;5053191;28;20047;-65
2023/04/07 10:14:26;;;;;;;11.68;8.05;;;9.80;47.60;;;;;;5052911;28;20114;-65
2023/04/07 10:16:52;;;;;;;12.43;7.43;;;9.80;47.50;;;;;;5052894;28;20028;-65
2023/04/07 10:19:18;;;;;;;15.60;7.38;;;9.80;46.50;;;;;;5053075;28;20028;-65
2023/04/07 10:21:45;;;;;;;10.60;7.57;;;9.80;46.50;;;;;;5052703;28;20021;-65
2023/04/07 10:24:35;;;;;;;11.13;7.20;;;9.90;46.30;;;;;;5053028;28;20029;-66
2023/04/07 10:27:06;;;;;;;11.00;7.27;;;9.90;46.00;;;;;;5052747;28;20079;-65
2023/04/07 10:29:36;;;;;;;15.18;7.65;;;10.00;45.40;;;;;;5052463;28;20036;-65
2023/04/07 10:32:02;;;;;;;12.15;8.27;;;10.00;45.70;;;;;;5052394;28;20045;-65
2023/04/07 10:34:47;;;;;;;14.38;7.88;;;10.00;45.50;;;;;;5052078;28;20078;-67
2023/04/07 10:37:16;;;;;;;14.55;7.90;;;10.00;45.70;;;;;;5052614;28;20025;-66
2023/04/07 10:39:42;;;;;;;11.27;7.72;;;10.00;45.50;;;;;;5051947;28;20489;-66
2023/04/07 10:42:43;;;;;;;13.55;7.22;;;10.00;45.80;;;;;;5052712;28;20025;-65
2023/04/07 10:45:09;;;;;;;11.45;7.78;;;10.00;45.50;;;;;;5052882;28;20037;-66
2023/04/07 10:47:59;;;;;;;12.80;7.75;;;10.00;45.40;;;;;;5052162;28;20044;-66
2023/04/07 10:50:25;;;;;;;12.65;8.07;;;10.00;45.50;;;;;;5052346;28;20033;-66
2023/04/07 10:53:07;;;;;;;11.13;7.97;;;10.00;45.80;;;;;;5052036;28;20025;-66
2023/04/07 10:55:39;;;;;;;13.60;8.20;;;10.00;46.10;;;;;;5052018;28;20029;-66
2023/04/07 10:58:22;;;;;;;10.75;8.32;;;10.00;45.80;;;;;;5052304;28;20025;-66
2023/04/07 11:00:59;;;;;;;13.25;8.85;;;10.00;45.40;;;;;;5052032;28;20361;-66
2023/04/07 11:03:27;;;;;;;15.35;8.48;;;10.00;45.40;;;;;;5052232;28;20116;-66
2023/04/07 11:06:01;;;;;;;12.40;8.27;;;10.00;45.40;;;;;;5051988;28;20033;-66
2023/04/07 11:08:41;;;;;;;11.88;8.77;;;10.00;45.20;;;;;;5052807;28;20028;-66
2023/04/07 11:11:10;;;;;;;13.32;8.73;;;10.00;45.20;;;;;;5052691;28;20107;-66
2023/04/07 11:13:43;;;;;;;16.98;9.88;;;10.00;45.40;;;;;;5051969;28;20032;-66
2023/04/07 11:16:10;;;;;;;12.57;8.35;;;10.00;45.40;;;;;;5052488;28;20025;-66
2023/04/07 11:18:37;;;;;;;13.63;8.40;;;10.00;45.90;;;;;;5051576;28;20049;-66
2023/04/07 11:21:05;;;;;;;12.45;7.95;;;10.00;46.40;;;;;;5052252;28;20035;-66
2023/04/07 11:23:38;;;;;;;11.43;8.35;;;10.10;46.50;;;;;;5051658;28;20032;-69
2023/04/07 11:26:04;;;;;;;14.07;8.07;;;10.10;46.60;;;;;;5052428;28;20389;-66
2023/04/07 11:28:30;;;;;;;16.10;8.52;;;10.10;46.80;;;;;;5052353;28;20021;-66
2023/04/07 11:30:57;;;;;;;12.55;8.07;;;10.20;47.30;;;;;;5052046;28;20025;-66
2023/04/07 11:33:29;;;;;;;13.88;7.70;;;10.20;47.20;;;;;;5052030;28;20339;-66
2023/04/07 11:35:57;;;;;;;13.27;8.68;;;10.30;47.40;;;;;;5051771;28;20056;-65
2023/04/07 11:38:26;;;;;;;14.10;8.25;;;10.40;46.90;;;;;;5052238;28;20029;-66
2023/04/07 11:40:52;;;;;;;11.40;7.80;;;10.40;46.90;;;;;;5054952;28;20074;-66
2023/04/07 11:43:27;;;;;;;15.23;8.70;;;10.50;46.70;;;;;;5055428;28;20060;-65
2023/04/07 11:46:06;;;;;;;10.82;7.68;;;10.50;46.50;;;;;;5054013;28;20033;-65
2023/04/07 11:48:33;;;;;;;11.00;6.97;;;10.60;46.10;;;;;;5055326;28;20110;-72
2023/04/07 11:51:00;;;;;;;10.77;8.07;;;10.70;46.30;;;;;;5055537;28;20029;-64
2023/04/07 11:53:31;;;;;;;10.98;7.75;;;10.70;46.10;;;;;;5055452;28;20090;-65
2023/04/07 11:56:09;;;;;;;13.10;7.40;;;10.80;46.70;;;;;;5055286;28;20029;-66
2023/04/07 11:58:35;;;;;;;12.18;8.07;;;10.90;45.80;;;;;;5055405;28;20040;-66
2023/04/07 12:01:07;;;;;;;11.60;7.38;;;11.00;45.80;;;;;;5055411;28;20036;-66
2023/04/07 12:03:36;;;;;;;13.40;7.70;;;11.10;45.80;;;;;;5054589;28;20091;-72
2023/04/07 12:06:03;;;;;;;13.32;7.95;;;11.20;45.80;;;;;;5053388;28;20033;-66
2023/04/07 12:08:42;;;;;;;16.30;7.93;;;11.30;45.60;;;;;;5055565;28;20043;-66
2023/04/07 12:11:09;;;;;;;11.23;7.78;;;11.30;45.20;;;;;;5054975;28;20040;-66
2023/04/07 12:13:36;;;;;;;14.02;7.32;;;11.40;45.10;;;;;;5054570;28;20534;-65
2023/04/07 12:16:01;;;;;;;10.98;7.18;;;11.50;45.00;;;;;;5055211;28;20100;-65
2023/04/07 12:18:27;;;;;;;13.07;7.28;;;11.60;45.10;;;;;;5054924;28;20099;-65
2023/04/07 12:20:54;;;;;;;12.82;7.00;;;11.60;44.90;;;;;;5054401;28;20040;-66
2023/04/07 12:23:21;;;;;;;8.18;6.40;;;11.70;44.50;;;;;;5054667;28;20381;-65
2023/04/07 12:25:47;;;;;;;14.43;7.22;;;11.60;44.60;;;;;;5054498;28;20025;-65
2023/04/07 12:28:12;;;;;;;10.48;7.25;;;11.60;44.30;;;;;;5054924;28;20032;-65
2023/04/07 12:30:38;;;;;;;8.20;6.82;;;11.50;44.10;;;;;;5054204;28;20397;-65
2023/04/07 12:33:04;;;;;;;12.00;7.63;;;11.50;44.30;;;;;;5054422;28;20025;-66
2023/04/07 12:35:29;;;;;;;12.52;7.47;;;11.50;43.90;;;;;;5054886;28;20021;-65
2023/04/07 12:37:55;;;;;;;8.90;6.35;;;11.40;44.00;;;;;;5054274;28;20029;-67
2023/04/07 12:40:22;;;;;;;11.25;6.50;;;11.40;44.40;;;;;;5054866;28;20029;-66
2023/04/07 12:42:47;;;;;;;10.52;7.00;;;11.40;44.70;;;;;;5054092;28;20107;-66
2023/04/07 12:45:13;;;;;;;11.05;7.05;;;11.40;44.70;;;;;;5054811;28;20423;-66
2023/04/07 12:47:39;;;;;;;11.30;6.80;;;11.40;44.90;;;;;;5054311;28;20021;-66